Terminal Aerodrome Forecast
Issued by NWS

Home | Current Version | Previous Version | Text Only | Print | Product List | Glossary On
Versions: 1 2 3 4 5 6 7 8 9 10 11 12 13 14 15 16 17 18
648
FTUS44 KBMX 180520
TAFTCL
TAF
KTCL 180520Z 1806/1906 34003KT P6SM BKN025
     FM180700 30004KT P6SM OVC015
     FM180900 32004KT 2SM BR OVC007
     FM181400 36003KT P6SM BKN015=

USA.gov is the U.S. government's official web portal to all federal, state and local government web resources and services.